sensor_id;sensor_type;location;lat;lon;timestamp;pressure;altitude;pressure_sealevel;temperature;humidity
37206;BME280;23099;42.636;23.198;2023-02-01T00:01:19;92005.09;;;-0.77;85.13
37206;BME280;23099;42.636;23.198;2023-02-01T00:03:45;92001.91;;;-0.88;85.09
37206;BME280;23099;42.636;23.198;2023-02-01T00:06:12;92006.75;;;-0.81;84.88
37206;BME280;23099;42.636;23.198;2023-02-01T00:08:38;92006.75;;;-0.67;85.32
37206;BME280;23099;42.636;23.198;2023-02-01T00:11:07;92000.25;;;-0.70;84.14
37206;BME280;23099;42.636;23.198;2023-02-01T00:13:34;92003.47;;;-0.59;85.79
37206;BME280;23099;42.636;23.198;2023-02-01T00:16:03;92003.34;;;-0.54;83.63
37206;BME280;23099;42.636;23.198;2023-02-01T00:18:30;92008.03;;;-0.51;84.27
37206;BME280;23099;42.636;23.198;2023-02-01T00:20:56;92009.31;;;-0.49;81.95
37206;BME280;23099;42.636;23.198;2023-02-01T00:23:22;92005.19;;;-0.41;83.93
37206;BME280;23099;42.636;23.198;2023-02-01T00:25:49;92010.66;;;-0.38;84.28
37206;BME280;23099;42.636;23.198;2023-02-01T00:28:17;92006.47;;;-0.52;82.45
37206;BME280;23099;42.636;23.198;2023-02-01T00:30:43;92004.81;;;-0.62;81.89
37206;BME280;23099;42.636;23.198;2023-02-01T00:33:10;92007.44;;;-0.48;82.82
37206;BME280;23099;42.636;23.198;2023-02-01T00:35:36;92005.13;;;-0.36;83.65
37206;BME280;23099;42.636;23.198;2023-02-01T00:38:03;91998.22;;;-0.32;83.25
37206;BME280;23099;42.636;23.198;2023-02-01T00:40:29;91997.72;;;-0.34;82.87
37206;BME280;23099;42.636;23.198;2023-02-01T00:42:55;91991.97;;;-0.22;83.14
37206;BME280;23099;42.636;23.198;2023-02-01T00:45:24;91997.91;;;-0.30;82.23
37206;BME280;23099;42.636;23.198;2023-02-01T00:47:50;91997.31;;;-0.41;79.79
37206;BME280;23099;42.636;23.198;2023-02-01T00:50:17;91993.25;;;-0.33;79.72
37206;BME280;23099;42.636;23.198;2023-02-01T00:52:43;91989.66;;;-0.51;79.64
37206;BME280;23099;42.636;23.198;2023-02-01T00:55:10;91986.81;;;-0.55;80.04
37206;BME280;23099;42.636;23.198;2023-02-01T00:57:36;91988.00;;;-0.61;80.28
37206;BME280;23099;42.636;23.198;2023-02-01T01:00:03;91982.75;;;-0.61;80.94
37206;BME280;23099;42.636;23.198;2023-02-01T01:02:31;91980.81;;;-0.55;80.84
37206;BME280;23099;42.636;23.198;2023-02-01T01:04:57;91986.53;;;-0.53;80.31
37206;BME280;23099;42.636;23.198;2023-02-01T01:07:24;91984.31;;;-0.60;80.50
37206;BME280;23099;42.636;23.198;2023-02-01T01:09:50;91980.91;;;-0.60;79.72
37206;BME280;23099;42.636;23.198;2023-02-01T01:12:16;91978.59;;;-0.76;79.94
37206;BME280;23099;42.636;23.198;2023-02-01T01:14:44;91989.06;;;-0.76;80.00
37206;BME280;23099;42.636;23.198;2023-02-01T01:17:11;91978.19;;;-0.83;79.83
37206;BME280;23099;42.636;23.198;2023-02-01T01:19:39;91984.69;;;-0.80;80.81
37206;BME280;23099;42.636;23.198;2023-02-01T01:22:05;91979.66;;;-0.77;79.56
37206;BME280;23099;42.636;23.198;2023-02-01T01:24:32;91972.56;;;-0.90;81.76
37206;BME280;23099;42.636;23.198;2023-02-01T01:26:58;91977.88;;;-0.95;81.46
37206;BME280;23099;42.636;23.198;2023-02-01T01:29:25;91980.13;;;-1.02;81.71
37206;BME280;23099;42.636;23.198;2023-02-01T01:31:51;91986.72;;;-1.04;80.89
37206;BME280;23099;42.636;23.198;2023-02-01T01:34:18;91987.97;;;-1.16;79.92
37206;BME280;23099;42.636;23.198;2023-02-01T01:36:45;91996.91;;;-1.17;80.87
37206;BME280;23099;42.636;23.198;2023-02-01T01:39:12;91998.84;;;-1.09;80.13
37206;BME280;23099;42.636;23.198;2023-02-01T01:41:38;92005.19;;;-1.28;78.77
37206;BME280;23099;42.636;23.198;2023-02-01T01:44:05;91987.38;;;-1.13;79.86
37206;BME280;23099;42.636;23.198;2023-02-01T01:46:34;91994.75;;;-1.01;80.27
37206;BME280;23099;42.636;23.198;2023-02-01T01:49:02;91994.88;;;-0.92;80.96
37206;BME280;23099;42.636;23.198;2023-02-01T01:51:31;91993.91;;;-0.83;81.34
37206;BME280;23099;42.636;23.198;2023-02-01T01:54:01;91992.84;;;-0.82;78.98
37206;BME280;23099;42.636;23.198;2023-02-01T01:56:29;91988.66;;;-0.83;79.70
37206;BME280;23099;42.636;23.198;2023-02-01T01:58:56;91989.84;;;-0.89;79.96
37206;BME280;23099;42.636;23.198;2023-02-01T02:01:23;91989.06;;;-1.03;78.98
37206;BME280;23099;42.636;23.198;2023-02-01T02:03:49;91996.63;;;-1.01;79.37
37206;BME280;23099;42.636;23.198;2023-02-01T02:06:19;91999.38;;;-1.25;80.32
37206;BME280;23099;42.636;23.198;2023-02-01T02:08:48;91996.66;;;-1.34;79.91
37206;BME280;23099;42.636;23.198;2023-02-01T02:11:16;91996.03;;;-1.45;80.61
37206;BME280;23099;42.636;23.198;2023-02-01T02:13:45;91991.44;;;-1.53;81.03
37206;BME280;23099;42.636;23.198;2023-02-01T02:16:24;91985.44;;;-1.72;81.23
37206;BME280;23099;42.636;23.198;2023-02-01T02:18:59;91986.53;;;-1.92;81.81
37206;BME280;23099;42.636;23.198;2023-02-01T02:21:36;91993.28;;;-2.04;82.07
37206;BME280;23099;42.636;23.198;2023-02-01T02:27:15;91997.50;;;-2.08;82.50
37206;BME280;23099;42.636;23.198;2023-02-01T02:29:54;91997.13;;;-2.02;82.57
37206;BME280;23099;42.636;23.198;2023-02-01T02:32:34;91997.06;;;-1.97;82.67
37206;BME280;23099;42.636;23.198;2023-02-01T02:35:09;91999.75;;;-2.02;82.16
37206;BME280;23099;42.636;23.198;2023-02-01T02:37:42;92003.72;;;-1.86;83.10
37206;BME280;23099;42.636;23.198;2023-02-01T02:40:13;92006.06;;;-1.84;82.81
37206;BME280;23099;42.636;23.198;2023-02-01T02:42:43;92008.91;;;-1.81;82.01
37206;BME280;23099;42.636;23.198;2023-02-01T02:45:29;92010.81;;;-1.86;83.35
37206;BME280;23099;42.636;23.198;2023-02-01T02:48:19;92007.91;;;-1.85;84.30
37206;BME280;23099;42.636;23.198;2023-02-01T02:50:49;92006.34;;;-1.86;83.22
37206;BME280;23099;42.636;23.198;2023-02-01T02:53:35;92007.72;;;-1.88;82.93
37206;BME280;23099;42.636;23.198;2023-02-01T02:56:21;92000.81;;;-1.84;82.88
37206;BME280;23099;42.636;23.198;2023-02-01T02:59:07;91997.06;;;-1.78;82.44
37206;BME280;23099;42.636;23.198;2023-02-01T03:01:51;91992.63;;;-1.77;83.22
37206;BME280;23099;42.636;23.198;2023-02-01T03:04:36;92004.38;;;-1.75;81.84
37206;BME280;23099;42.636;23.198;2023-02-01T03:07:12;92005.94;;;-1.74;81.91
37206;BME280;23099;42.636;23.198;2023-02-01T03:09:40;92011.72;;;-1.77;82.80
37206;BME280;23099;42.636;23.198;2023-02-01T03:12:08;92026.47;;;-1.81;82.90
37206;BME280;23099;42.636;23.198;2023-02-01T03:14:56;92025.88;;;-1.78;82.68
37206;BME280;23099;42.636;23.198;2023-02-01T03:17:25;92031.19;;;-1.83;82.52
37206;BME280;23099;42.636;23.198;2023-02-01T03:19:53;92036.22;;;-1.87;84.23
37206;BME280;23099;42.636;23.198;2023-02-01T03:22:23;92034.19;;;-1.90;82.45
37206;BME280;23099;42.636;23.198;2023-02-01T03:24:51;92032.34;;;-1.89;82.66
37206;BME280;23099;42.636;23.198;2023-02-01T03:27:21;92036.03;;;-1.90;83.41
37206;BME280;23099;42.636;23.198;2023-02-01T03:29:50;92033.69;;;-1.92;82.61
37206;BME280;23099;42.636;23.198;2023-02-01T03:32:17;92027.66;;;-1.92;84.10
37206;BME280;23099;42.636;23.198;2023-02-01T03:34:44;92033.41;;;-1.90;82.58
37206;BME280;23099;42.636;23.198;2023-02-01T03:37:11;92035.44;;;-1.87;83.22
37206;BME280;23099;42.636;23.198;2023-02-01T03:39:41;92031.91;;;-1.77;81.48
37206;BME280;23099;42.636;23.198;2023-02-01T03:42:12;92032.25;;;-1.65;82.67
37206;BME280;23099;42.636;23.198;2023-02-01T03:44:41;92032.97;;;-1.60;82.52
37206;BME280;23099;42.636;23.198;2023-02-01T03:47:13;92027.28;;;-1.48;82.64
37206;BME280;23099;42.636;23.198;2023-02-01T03:49:41;92026.34;;;-1.38;83.20
37206;BME280;23099;42.636;23.198;2023-02-01T03:52:09;92022.00;;;-1.29;83.64
37206;BME280;23099;42.636;23.198;2023-02-01T03:54:37;92036.59;;;-1.23;83.23
37206;BME280;23099;42.636;23.198;2023-02-01T03:57:07;92034.25;;;-1.25;82.37
37206;BME280;23099;42.636;23.198;2023-02-01T03:59:35;92026.88;;;-1.23;81.75
37206;BME280;23099;42.636;23.198;2023-02-01T04:02:04;92028.44;;;-1.22;82.38
37206;BME280;23099;42.636;23.198;2023-02-01T04:04:30;92042.16;;;-1.11;83.30
37206;BME280;23099;42.636;23.198;2023-02-01T04:06:57;92037.63;;;-1.05;82.69
37206;BME280;23099;42.636;23.198;2023-02-01T04:09:24;92032.44;;;-1.11;81.25
37206;BME280;23099;42.636;23.198;2023-02-01T04:11:50;92032.75;;;-0.98;80.81
37206;BME280;23099;42.636;23.198;2023-02-01T04:14:18;92029.84;;;-0.97;81.45
37206;BME280;23099;42.636;23.198;2023-02-01T04:16:45;92032.25;;;-1.00;82.21
37206;BME280;23099;42.636;23.198;2023-02-01T04:19:11;92033.91;;;-1.18;83.02
37206;BME280;23099;42.636;23.198;2023-02-01T04:21:38;92033.47;;;-1.25;83.05
37206;BME280;23099;42.636;23.198;2023-02-01T04:24:05;92050.41;;;-1.18;82.89
37206;BME280;23099;42.636;23.198;2023-02-01T04:26:31;92037.72;;;-1.29;84.68
37206;BME280;23099;42.636;23.198;2023-02-01T04:28:58;92037.16;;;-1.26;84.50
37206;BME280;23099;42.636;23.198;2023-02-01T04:31:25;92038.22;;;-1.27;83.53
37206;BME280;23099;42.636;23.198;2023-02-01T04:33:52;92041.53;;;-1.22;84.53
37206;BME280;23099;42.636;23.198;2023-02-01T04:36:19;92033.13;;;-1.19;84.03
37206;BME280;23099;42.636;23.198;2023-02-01T04:38:47;92037.47;;;-1.14;83.39
37206;BME280;23099;42.636;23.198;2023-02-01T04:41:13;92031.59;;;-1.06;83.14
37206;BME280;23099;42.636;23.198;2023-02-01T04:43:40;92017.13;;;-1.03;84.34
37206;BME280;23099;42.636;23.198;2023-02-01T04:46:07;92024.88;;;-0.98;84.31
37206;BME280;23099;42.636;23.198;2023-02-01T04:48:35;92030.34;;;-0.95;85.65
37206;BME280;23099;42.636;23.198;2023-02-01T04:51:01;92032.69;;;-0.80;85.80
37206;BME280;23099;42.636;23.198;2023-02-01T04:53:28;92036.81;;;-0.74;85.26
37206;BME280;23099;42.636;23.198;2023-02-01T04:55:55;92034.25;;;-0.79;84.15
37206;BME280;23099;42.636;23.198;2023-02-01T04:58:21;92031.22;;;-0.86;84.46
37206;BME280;23099;42.636;23.198;2023-02-01T05:00:48;92037.09;;;-0.75;85.22
37206;BME280;23099;42.636;23.198;2023-02-01T05:03:15;92051.66;;;-0.69;85.35
37206;BME280;23099;42.636;23.198;2023-02-01T05:05:42;92049.03;;;-0.69;83.80
37206;BME280;23099;42.636;23.198;2023-02-01T05:08:09;92050.38;;;-0.72;83.38
37206;BME280;23099;42.636;23.198;2023-02-01T05:10:35;92063.34;;;-0.75;85.53
37206;BME280;23099;42.636;23.198;2023-02-01T05:13:02;92047.69;;;-0.66;83.30
37206;BME280;23099;42.636;23.198;2023-02-01T05:15:46;92071.44;;;-0.58;84.44
37206;BME280;23099;42.636;23.198;2023-02-01T05:18:12;92070.53;;;-0.53;86.29
37206;BME280;23099;42.636;23.198;2023-02-01T05:20:38;92059.16;;;-0.62;84.74
37206;BME280;23099;42.636;23.198;2023-02-01T05:23:06;92074.13;;;-0.63;83.56
37206;BME280;23099;42.636;23.198;2023-02-01T05:25:33;92063.16;;;-0.65;84.09
37206;BME280;23099;42.636;23.198;2023-02-01T05:27:59;92061.31;;;-0.64;84.71
37206;BME280;23099;42.636;23.198;2023-02-01T05:30:26;92065.34;;;-0.72;84.18
37206;BME280;23099;42.636;23.198;2023-02-01T05:32:52;92070.59;;;-0.72;85.00
37206;BME280;23099;42.636;23.198;2023-02-01T05:35:19;92073.53;;;-0.74;84.49
37206;BME280;23099;42.636;23.198;2023-02-01T05:37:45;92073.94;;;-0.66;84.98
37206;BME280;23099;42.636;23.198;2023-02-01T05:40:13;92067.91;;;-0.67;84.68
37206;BME280;23099;42.636;23.198;2023-02-01T05:42:40;92066.06;;;-0.66;84.42
37206;BME280;23099;42.636;23.198;2023-02-01T05:45:07;92067.63;;;-0.65;85.04
37206;BME280;23099;42.636;23.198;2023-02-01T05:47:33;92067.31;;;-0.64;84.16
37206;BME280;23099;42.636;23.198;2023-02-01T05:50:00;92073.63;;;-0.65;84.51
37206;BME280;23099;42.636;23.198;2023-02-01T05:52:26;92070.94;;;-0.60;84.62
37206;BME280;23099;42.636;23.198;2023-02-01T05:54:53;92076.47;;;-0.61;84.80
37206;BME280;23099;42.636;23.198;2023-02-01T05:57:21;92065.00;;;-0.65;84.85
37206;BME280;23099;42.636;23.198;2023-02-01T05:59:47;92085.22;;;-0.52;84.45
37206;BME280;23099;42.636;23.198;2023-02-01T06:02:14;92085.03;;;-0.42;83.27
37206;BME280;23099;42.636;23.198;2023-02-01T06:04:40;92084.66;;;-0.36;83.51
37206;BME280;23099;42.636;23.198;2023-02-01T06:07:07;92091.69;;;-0.31;83.18
37206;BME280;23099;42.636;23.198;2023-02-01T06:09:35;92082.53;;;-0.33;83.60
37206;BME280;23099;42.636;23.198;2023-02-01T06:12:02;92081.06;;;-0.26;83.81
37206;BME280;23099;42.636;23.198;2023-02-01T06:14:30;92082.31;;;-0.37;84.01
37206;BME280;23099;42.636;23.198;2023-02-01T06:16:56;92082.59;;;-0.52;83.68
37206;BME280;23099;42.636;23.198;2023-02-01T06:19:23;92081.63;;;-0.56;84.64
37206;BME280;23099;42.636;23.198;2023-02-01T06:21:50;92080.75;;;-0.52;85.12
37206;BME280;23099;42.636;23.198;2023-02-01T06:24:17;92086.88;;;-0.56;84.69
37206;BME280;23099;42.636;23.198;2023-02-01T06:26:43;92089.13;;;-0.50;85.10
37206;BME280;23099;42.636;23.198;2023-02-01T06:29:10;92089.59;;;-0.61;84.59
37206;BME280;23099;42.636;23.198;2023-02-01T06:31:38;92091.22;;;-0.65;85.08
37206;BME280;23099;42.636;23.198;2023-02-01T06:34:04;92086.56;;;-0.68;85.43
37206;BME280;23099;42.636;23.198;2023-02-01T06:36:31;92088.41;;;-0.69;84.87
37206;BME280;23099;42.636;23.198;2023-02-01T06:38:57;92084.22;;;-0.70;84.21
37206;BME280;23099;42.636;23.198;2023-02-01T06:41:24;92095.13;;;-0.63;84.35
37206;BME280;23099;42.636;23.198;2023-02-01T06:43:51;92088.91;;;-0.67;85.14
37206;BME280;23099;42.636;23.198;2023-02-01T06:46:17;92104.00;;;-0.59;84.55
37206;BME280;23099;42.636;23.198;2023-02-01T06:48:45;92098.31;;;-0.66;83.62
37206;BME280;23099;42.636;23.198;2023-02-01T06:51:19;92104.25;;;-0.74;84.84
37206;BME280;23099;42.636;23.198;2023-02-01T06:53:46;92108.91;;;-0.71;84.32
37206;BME280;23099;42.636;23.198;2023-02-01T06:56:12;92114.84;;;-0.65;85.65
37206;BME280;23099;42.636;23.198;2023-02-01T06:58:39;92106.97;;;-0.65;85.30
37206;BME280;23099;42.636;23.198;2023-02-01T07:01:06;92109.13;;;-0.54;85.17
37206;BME280;23099;42.636;23.198;2023-02-01T07:03:32;92110.22;;;-0.41;84.01
37206;BME280;23099;42.636;23.198;2023-02-01T07:08:12;92130.84;;;-0.34;84.06
37206;BME280;23099;42.636;23.198;2023-02-01T07:10:38;92126.31;;;-0.29;84.81
37206;BME280;23099;42.636;23.198;2023-02-01T07:13:05;92130.00;;;-0.30;84.72
37206;BME280;23099;42.636;23.198;2023-02-01T07:15:32;92144.84;;;-0.39;83.80
37206;BME280;23099;42.636;23.198;2023-02-01T07:17:59;92145.06;;;-0.36;83.83
37206;BME280;23099;42.636;23.198;2023-02-01T07:20:25;92148.38;;;-0.30;84.55
37206;BME280;23099;42.636;23.198;2023-02-01T07:22:55;92151.97;;;-0.26;83.55
37206;BME280;23099;42.636;23.198;2023-02-01T07:25:24;92146.13;;;-0.23;83.59
37206;BME280;23099;42.636;23.198;2023-02-01T07:27:50;92148.47;;;-0.21;83.48
37206;BME280;23099;42.636;23.198;2023-02-01T07:30:17;92152.38;;;-0.19;83.15
37206;BME280;23099;42.636;23.198;2023-02-01T07:32:44;92147.63;;;-0.17;83.89
37206;BME280;23099;42.636;23.198;2023-02-01T07:35:11;92146.56;;;-0.16;84.28
37206;BME280;23099;42.636;23.198;2023-02-01T07:37:39;92158.50;;;-0.10;83.44
37206;BME280;23099;42.636;23.198;2023-02-01T07:40:06;92157.56;;;0.00;83.90
37206;BME280;23099;42.636;23.198;2023-02-01T07:42:35;92152.88;;;-0.03;83.43
37206;BME280;23099;42.636;23.198;2023-02-01T07:45:02;92149.69;;;0.00;83.25
37206;BME280;23099;42.636;23.198;2023-02-01T07:47:29;92152.97;;;0.06;82.89
37206;BME280;23099;42.636;23.198;2023-02-01T07:49:55;92153.47;;;-0.06;83.15
37206;BME280;23099;42.636;23.198;2023-02-01T07:52:22;92159.78;;;-0.07;83.22
37206;BME280;23099;42.636;23.198;2023-02-01T07:54:49;92165.81;;;-0.07;82.84
37206;BME280;23099;42.636;23.198;2023-02-01T07:57:15;92171.28;;;-0.03;82.77
37206;BME280;23099;42.636;23.198;2023-02-01T07:59:43;92176.53;;;-0.03;82.83
37206;BME280;23099;42.636;23.198;2023-02-01T08:02:24;92178.59;;;0.00;82.38
37206;BME280;23099;42.636;23.198;2023-02-01T08:04:51;92166.38;;;-0.10;83.33
37206;BME280;23099;42.636;23.198;2023-02-01T08:07:17;92176.91;;;-0.10;82.81
37206;BME280;23099;42.636;23.198;2023-02-01T08:09:44;92185.69;;;-0.01;82.62
37206;BME280;23099;42.636;23.198;2023-02-01T08:12:11;92180.72;;;0.12;82.83
37206;BME280;23099;42.636;23.198;2023-02-01T08:14:37;92178.75;;;0.17;82.12
37206;BME280;23099;42.636;23.198;2023-02-01T08:17:07;92187.34;;;0.23;80.72
37206;BME280;23099;42.636;23.198;2023-02-01T08:19:33;92182.28;;;0.26;81.09
37206;BME280;23099;42.636;23.198;2023-02-01T08:22:00;92182.38;;;0.35;81.02
37206;BME280;23099;42.636;23.198;2023-02-01T08:24:32;92177.09;;;0.49;80.28
37206;BME280;23099;42.636;23.198;2023-02-01T08:27:00;92176.44;;;0.43;77.67
37206;BME280;23099;42.636;23.198;2023-02-01T08:29:27;92183.72;;;0.46;78.35
37206;BME280;23099;42.636;23.198;2023-02-01T08:31:53;92191.44;;;0.56;78.92
37206;BME280;23099;42.636;23.198;2023-02-01T08:34:21;92181.19;;;0.68;78.54
37206;BME280;23099;42.636;23.198;2023-02-01T08:36:48;92190.53;;;0.61;76.81
37206;BME280;23099;42.636;23.198;2023-02-01T08:39:17;92193.72;;;0.58;77.87
37206;BME280;23099;42.636;23.198;2023-02-01T08:41:43;92192.00;;;0.53;78.08
37206;BME280;23099;42.636;23.198;2023-02-01T08:44:30;92193.84;;;0.53;78.49
37206;BME280;23099;42.636;23.198;2023-02-01T08:46:57;92200.25;;;0.60;77.92
37206;BME280;23099;42.636;23.198;2023-02-01T08:49:25;92182.25;;;0.67;77.41
37206;BME280;23099;42.636;23.198;2023-02-01T08:51:52;92173.47;;;0.72;77.83
37206;BME280;23099;42.636;23.198;2023-02-01T08:54:18;92177.47;;;0.69;78.40
37206;BME280;23099;42.636;23.198;2023-02-01T08:56:45;92178.75;;;0.72;76.05
37206;BME280;23099;42.636;23.198;2023-02-01T08:59:12;92174.34;;;0.81;76.74
37206;BME280;23099;42.636;23.198;2023-02-01T09:01:39;92180.81;;;0.97;76.66
37206;BME280;23099;42.636;23.198;2023-02-01T09:04:05;92176.28;;;1.12;75.71
37206;BME280;23099;42.636;23.198;2023-02-01T09:06:33;92180.50;;;1.13;74.96
37206;BME280;23099;42.636;23.198;2023-02-01T09:09:00;92185.28;;;1.11;73.83
37206;BME280;23099;42.636;23.198;2023-02-01T09:11:27;92186.94;;;1.06;72.68
37206;BME280;23099;42.636;23.198;2023-02-01T09:13:53;92176.41;;;1.06;73.45
37206;BME280;23099;42.636;23.198;2023-02-01T09:16:20;92174.44;;;1.12;73.95
37206;BME280;23099;42.636;23.198;2023-02-01T09:18:47;92200.94;;;1.16;74.76
37206;BME280;23099;42.636;23.198;2023-02-01T09:21:13;92191.16;;;1.30;73.92
37206;BME280;23099;42.636;23.198;2023-02-01T09:23:41;92179.22;;;1.32;73.15
37206;BME280;23099;42.636;23.198;2023-02-01T09:26:08;92182.25;;;1.39;73.94
37206;BME280;23099;42.636;23.198;2023-02-01T09:28:36;92197.19;;;1.53;75.05
37206;BME280;23099;42.636;23.198;2023-02-01T09:31:03;92191.97;;;1.61;73.24
37206;BME280;23099;42.636;23.198;2023-02-01T09:33:30;92180.72;;;1.69;70.97
37206;BME280;23099;42.636;23.198;2023-02-01T09:35:57;92179.41;;;1.81;71.29
37206;BME280;23099;42.636;23.198;2023-02-01T09:38:24;92186.13;;;1.87;71.80
37206;BME280;23099;42.636;23.198;2023-02-01T09:40:54;92180.44;;;1.71;70.35
37206;BME280;23099;42.636;23.198;2023-02-01T09:43:33;92179.44;;;1.58;71.91
37206;BME280;23099;42.636;23.198;2023-02-01T09:46:18;92166.59;;;1.65;71.32
37206;BME280;23099;42.636;23.198;2023-02-01T09:48:47;92157.22;;;1.73;69.91
37206;BME280;23099;42.636;23.198;2023-02-01T09:51:18;92151.94;;;1.73;70.31
37206;BME280;23099;42.636;23.198;2023-02-01T09:53:58;92148.03;;;1.70;69.76
37206;BME280;23099;42.636;23.198;2023-02-01T09:56:34;92130.91;;;1.90;72.60
37206;BME280;23099;42.636;23.198;2023-02-01T09:59:04;92134.66;;;2.29;69.63
37206;BME280;23099;42.636;23.198;2023-02-01T10:01:37;92125.28;;;2.79;66.21
37206;BME280;23099;42.636;23.198;2023-02-01T10:04:06;92127.00;;;3.36;67.47
37206;BME280;23099;42.636;23.198;2023-02-01T10:06:44;92139.34;;;3.87;61.75
37206;BME280;23099;42.636;23.198;2023-02-01T10:09:28;92129.47;;;3.41;61.92
37206;BME280;23099;42.636;23.198;2023-02-01T10:12:28;92144.09;;;3.30;64.48
37206;BME280;23099;42.636;23.198;2023-02-01T10:15:10;92144.56;;;3.14;65.42
37206;BME280;23099;42.636;23.198;2023-02-01T10:17:51;92131.81;;;2.91;63.24
37206;BME280;23099;42.636;23.198;2023-02-01T10:20:24;92139.56;;;2.78;65.17
37206;BME280;23099;42.636;23.198;2023-02-01T10:23:01;92139.56;;;2.70;66.72
37206;BME280;23099;42.636;23.198;2023-02-01T10:25:36;92129.44;;;2.63;65.70
37206;BME280;23099;42.636;23.198;2023-02-01T10:28:07;92122.81;;;3.09;68.02
37206;BME280;23099;42.636;23.198;2023-02-01T10:30:40;92119.69;;;3.59;64.18
37206;BME280;23099;42.636;23.198;2023-02-01T10:33:15;92127.38;;;3.89;61.08
37206;BME280;23099;42.636;23.198;2023-02-01T10:35:44;92122.06;;;3.98;60.21
37206;BME280;23099;42.636;23.198;2023-02-01T10:38:19;92116.56;;;3.48;61.42
37206;BME280;23099;42.636;23.198;2023-02-01T10:40:49;92127.16;;;3.05;64.73
37206;BME280;23099;42.636;23.198;2023-02-01T10:43:19;92137.91;;;3.17;65.12
37206;BME280;23099;42.636;23.198;2023-02-01T10:45:46;92145.94;;;3.20;64.02
37206;BME280;23099;42.636;23.198;2023-02-01T10:48:13;92139.75;;;3.08;63.81
37206;BME280;23099;42.636;23.198;2023-02-01T10:50:46;92138.50;;;3.05;65.13
37206;BME280;23099;42.636;23.198;2023-02-01T10:53:18;92131.03;;;3.33;62.46
37206;BME280;23099;42.636;23.198;2023-02-01T10:55:48;92122.97;;;3.21;62.66
37206;BME280;23099;42.636;23.198;2023-02-01T10:58:17;92105.59;;;2.86;62.92
37206;BME280;23099;42.636;23.198;2023-02-01T11:00:48;92115.06;;;2.87;64.36
37206;BME280;23099;42.636;23.198;2023-02-01T11:03:32;92136.63;;;2.89;63.05
37206;BME280;23099;42.636;23.198;2023-02-01T11:06:00;92138.03;;;2.86;64.72
37206;BME280;23099;42.636;23.198;2023-02-01T11:08:27;92123.13;;;3.07;64.39
37206;BME280;23099;42.636;23.198;2023-02-01T11:10:59;92135.16;;;3.86;62.38
37206;BME280;23099;42.636;23.198;2023-02-01T11:13:29;92136.16;;;3.47;60.16
37206;BME280;23099;42.636;23.198;2023-02-01T11:15:57;92129.06;;;3.94;58.97
37206;BME280;23099;42.636;23.198;2023-02-01T11:18:27;92129.16;;;4.06;59.02
37206;BME280;23099;42.636;23.198;2023-02-01T11:20:54;92116.13;;;4.01;57.43
37206;BME280;23099;42.636;23.198;2023-02-01T11:23:23;92119.00;;;3.79;60.69
37206;BME280;23099;42.636;23.198;2023-02-01T11:25:53;92109.44;;;4.33;59.05
37206;BME280;23099;42.636;23.198;2023-02-01T11:28:22;92108.81;;;4.66;59.12
37206;BME280;23099;42.636;23.198;2023-02-01T11:30:51;92077.47;;;5.18;54.79
37206;BME280;23099;42.636;23.198;2023-02-01T11:33:24;92097.72;;;5.67;55.29
37206;BME280;23099;42.636;23.198;2023-02-01T11:35:55;92104.66;;;5.93;53.01
37206;BME280;23099;42.636;23.198;2023-02-01T11:38:27;92091.66;;;6.12;51.74
37206;BME280;23099;42.636;23.198;2023-02-01T11:40:54;92083.94;;;6.19;52.19
37206;BME280;23099;42.636;23.198;2023-02-01T11:43:24;92085.50;;;6.45;51.20
37206;BME280;23099;42.636;23.198;2023-02-01T11:45:56;92084.25;;;6.91;54.23
37206;BME280;23099;42.636;23.198;2023-02-01T11:48:26;92083.97;;;7.08;51.53
37206;BME280;23099;42.636;23.198;2023-02-01T11:51:01;92061.66;;;7.25;45.86
37206;BME280;23099;42.636;23.198;2023-02-01T11:53:41;92063.47;;;7.21;47.82
37206;BME280;23099;42.636;23.198;2023-02-01T11:56:20;92050.31;;;6.23;48.66
37206;BME280;23099;42.636;23.198;2023-02-01T11:59:06;92051.91;;;5.79;49.65
37206;BME280;23099;42.636;23.198;2023-02-01T12:01:47;92057.69;;;5.93;51.11
37206;BME280;23099;42.636;23.198;2023-02-01T12:04:53;92043.50;;;5.77;50.43
37206;BME280;23099;42.636;23.198;2023-02-01T12:07:28;92054.63;;;5.91;50.81
37206;BME280;23099;42.636;23.198;2023-02-01T12:10:15;92049.66;;;5.90;50.24
37206;BME280;23099;42.636;23.198;2023-02-01T12:12:52;92042.38;;;5.66;51.01
37206;BME280;23099;42.636;23.198;2023-02-01T12:15:30;92046.72;;;5.83;50.47
37206;BME280;23099;42.636;23.198;2023-02-01T12:18:12;92053.63;;;5.18;52.42
37206;BME280;23099;42.636;23.198;2023-02-01T12:21:06;92042.56;;;4.53;53.09
37206;BME280;23099;42.636;23.198;2023-02-01T12:23:49;92048.88;;;4.11;53.63
37206;BME280;23099;42.636;23.198;2023-02-01T12:26:40;92046.78;;;3.96;55.89
37206;BME280;23099;42.636;23.198;2023-02-01T12:29:21;92054.59;;;4.21;54.55
37206;BME280;23099;42.636;23.198;2023-02-01T12:32:11;92051.75;;;4.26;55.66
37206;BME280;23099;42.636;23.198;2023-02-01T12:37:39;92051.47;;;4.19;56.77
37206;BME280;23099;42.636;23.198;2023-02-01T12:40:20;92059.13;;;4.71;53.91
37206;BME280;23099;42.636;23.198;2023-02-01T12:42:53;92054.19;;;5.23;53.41
37206;BME280;23099;42.636;23.198;2023-02-01T12:45:31;92046.56;;;5.22;53.53
37206;BME280;23099;42.636;23.198;2023-02-01T12:48:08;92056.53;;;5.04;53.83
37206;BME280;23099;42.636;23.198;2023-02-01T12:50:43;92057.78;;;4.86;52.86
37206;BME280;23099;42.636;23.198;2023-02-01T12:53:19;92072.00;;;4.52;54.37
37206;BME280;23099;42.636;23.198;2023-02-01T12:55:50;92069.81;;;4.54;56.21
37206;BME280;23099;42.636;23.198;2023-02-01T12:58:23;92060.53;;;4.69;55.87
37206;BME280;23099;42.636;23.198;2023-02-01T13:00:54;92061.25;;;4.78;54.12
37206;BME280;23099;42.636;23.198;2023-02-01T13:03:34;92063.88;;;4.78;53.00
37206;BME280;23099;42.636;23.198;2023-02-01T13:06:08;92048.19;;;4.93;54.62
37206;BME280;23099;42.636;23.198;2023-02-01T13:08:43;92046.72;;;5.05;54.22
37206;BME280;23099;42.636;23.198;2023-02-01T13:11:13;92047.09;;;4.94;52.96
37206;BME280;23099;42.636;23.198;2023-02-01T13:13:48;92037.22;;;5.04;52.11
37206;BME280;23099;42.636;23.198;2023-02-01T13:16:24;92035.03;;;4.85;52.35
37206;BME280;23099;42.636;23.198;2023-02-01T13:18:59;92044.06;;;5.05;52.47